Terminal Aerodrome Forecast
Issued by NWS Fort Wayne, IN

Home | Current Version | Previous Version | Graphics & Text | Print | Product List | Glossary On
Versions: 1 2 3 4 5 6 7 8 9 10 11 12 13
000
FTUS43 KIWX 251700
TAFFWA
TAF
KFWA 251740Z 2518/2618 08013G21KT P6SM -RA OVC050
     FM252000 07013G21KT 5SM -RA BR OVC020
     FM260200 05011G17KT P6SM SCT025 OVC040
     FM260500 04008KT P6SM FEW040 SCT100
     FM261500 03011KT P6SM FEW040=

USA.gov is the U.S. government's official web portal to all federal, state and local government web resources and services.